H. Lee White — WZD2465 — position and weather

sailwx.info

Track history (hours):
 
Tides and Currents Weather Stations Pressure Air Temp Water Temp Dewpoint Dewpoint Depression Visibility Wind Speed Wind Dir Waves Ship Positions

H. Lee White

More information available from US FCC via Universal Licensing System and Coast Guard Vessel Documentation Center.

Last reported at 2014-Sep-11 03:00 UTC. Time now 2014-Sep-17 03:36 UTC.
Position N 45°06' W 083°06'.

Length 214 m; draft 6.4 m.

Type: Cargo ship. MMSI: 366938770.

Wind from 180 at 11 knots

Waves 1.0 meters (3 feet), 6 second period

Barometer 998.9 mb
Visibility: greater than 5.4 NM

Date/timePositionNaut miles runAvg speedWind from/ knotsBaromVisibWave heightAir tempDewpointWater temp
2014-Sep-11 03:00N 45°06' W 083°06'72 9.4 180 / 11998.9 5.4 1.0
2014-Sep-10 19:20N 46°07' W 084°01'10 8.3
2014-Sep-10 18:10N 46°14' W 084°10'33 4.9
2014-Sep-10 11:22N 46°37' W 084°45'910.7
2014-Sep-10 10:30N 46°44' W 084°52'8911.2
2014-Sep-10 02:33N 46°38' W 087°02'87 4.5
2014-Sep-09 07:05N 46°47' W 084°56'712.5
2014-Sep-09 06:33N 46°41' W 084°51'1512.1
2014-Sep-09 05:17N 46°30' W 084°36'6 8.3
2014-Sep-09 04:33N 46°29' W 084°27'13 3.2
2014-Sep-09 00:32N 46°21' W 084°12'7 7.1
2014-Sep-08 23:31N 46°15' W 084°06'12 9.1
2014-Sep-08 22:14N 46°04' W 084°00'710.4
2014-Sep-08 21:33N 45°59' W 083°53'1111.4
2014-Sep-08 20:33N 45°52' W 084°06'1211.7
2014-Sep-08 19:33N 45°51' W 084°22'1211.9
2014-Sep-08 18:33N 45°50' W 084°39'1211.9
2014-Sep-08 17:33N 45°50' W 084°56'1212.1
2014-Sep-08 16:33N 45°52' W 085°14'1211.9
2014-Sep-08 15:33N 45°53' W 085°31'1017.1
2014-Sep-08 15:00N 45°48' W 085°42'510.9 180 / 131020.9 5.4 0.5
2014-Sep-08 14:33N 45°51' W 085°47'1212.2
2014-Sep-08 13:33N 45°41' W 085°58'1312.6
2014-Sep-08 12:33N 45°31' W 086°08'1212.4
2014-Sep-08 11:33N 45°21' W 086°19'1312.8
2014-Sep-08 10:33N 45°10' W 086°29'1312.6
2014-Sep-08 09:33N 45°00' W 086°39'1010.5
2014-Sep-08 08:33N 44°51' W 086°47'1212.5
2014-Sep-08 07:33N 44°40' W 086°54'1212.4
2014-Sep-08 06:33N 44°28' W 087°01'1312.6
2014-Sep-08 05:33N 44°17' W 087°07'5 8.5
2014-Sep-08 05:00N 44°12' W 087°06'   200 / 71022.3 5.4
2014-Sep-05 05:00N 42°48' W 086°42'   170 / 211016.9 5.4
2014-Sep-02 07:00N 44°06' W 087°06'6511.3 280 / 121010.1 5.4
2014-Sep-02 01:14N 45°06' W 086°30'811.5
2014-Sep-02 00:32N 45°13' W 086°25'1111.4
2014-Sep-01 23:33N 45°23' W 086°18'1111.4
2014-Sep-01 22:33N 45°34' W 086°11'1111.0
2014-Sep-01 21:33N 45°43' W 086°02'1111.3
2014-Sep-01 20:33N 45°48' W 085°48'1111.3
2014-Sep-01 19:33N 45°54' W 085°34'711.9
2014-Sep-01 19:00N 45°54' W 085°24'511.4 220 / 181006.0 2.2 12.2
2014-Sep-01 18:33N 45°53' W 085°17'1111.5
2014-Sep-01 17:33N 45°51' W 085°01'1212.0
2014-Sep-01 16:33N 45°49' W 084°44'1211.8
2014-Sep-01 15:33N 45°43' W 084°29'1111.3
2014-Sep-01 14:33N 45°41' W 084°13'1211.9
2014-Sep-01 13:33N 45°35' W 083°58'  
Track history (hours):
 
Tides and Currents Weather Stations Pressure Air Temp Water Temp Dewpoint Dewpoint Depression Visibility Wind Speed Wind Dir Waves Ship Positions

H. Lee White

More information available from US FCC via Universal Licensing System and Coast Guard Vessel Documentation Center.

Last reported at 2014-Sep-11 03:00 UTC. Time now 2014-Sep-17 03:36 UTC.
Position N 45°06' W 083°06'.

Length 214 m; draft 6.4 m.

Type: Cargo ship. MMSI: 366938770.

Wind from 180 at 11 knots

Waves 1.0 meters (3 feet), 6 second period

Barometer 998.9 mb
Visibility: greater than 5.4 NM

Date/timePositionNaut miles runAvg speedWind from/ knotsBaromVisibWave heightAir tempDewpointWater temp
2014-Sep-11 03:00N 45°06' W 083°06'72 9.4 180 / 11998.9 5.4 1.0
2014-Sep-10 19:20N 46°07' W 084°01'10 8.3
2014-Sep-10 18:10N 46°14' W 084°10'33 4.9
2014-Sep-10 11:22N 46°37' W 084°45'910.7
2014-Sep-10 10:30N 46°44' W 084°52'8911.2
2014-Sep-10 02:33N 46°38' W 087°02'87 4.5
2014-Sep-09 07:05N 46°47' W 084°56'712.5
2014-Sep-09 06:33N 46°41' W 084°51'1512.1
2014-Sep-09 05:17N 46°30' W 084°36'6 8.3
2014-Sep-09 04:33N 46°29' W 084°27'13 3.2
2014-Sep-09 00:32N 46°21' W 084°12'7 7.1
2014-Sep-08 23:31N 46°15' W 084°06'12 9.1
2014-Sep-08 22:14N 46°04' W 084°00'710.4
2014-Sep-08 21:33N 45°59' W 083°53'1111.4
2014-Sep-08 20:33N 45°52' W 084°06'1211.7
2014-Sep-08 19:33N 45°51' W 084°22'1211.9
2014-Sep-08 18:33N 45°50' W 084°39'1211.9
2014-Sep-08 17:33N 45°50' W 084°56'1212.1
2014-Sep-08 16:33N 45°52' W 085°14'1211.9
2014-Sep-08 15:33N 45°53' W 085°31'1017.1
2014-Sep-08 15:00N 45°48' W 085°42'510.9 180 / 131020.9 5.4 0.5
2014-Sep-08 14:33N 45°51' W 085°47'1212.2
2014-Sep-08 13:33N 45°41' W 085°58'1312.6
2014-Sep-08 12:33N 45°31' W 086°08'1212.4
2014-Sep-08 11:33N 45°21' W 086°19'1312.8
2014-Sep-08 10:33N 45°10' W 086°29'1312.6
2014-Sep-08 09:33N 45°00' W 086°39'1010.5
2014-Sep-08 08:33N 44°51' W 086°47'1212.5
2014-Sep-08 07:33N 44°40' W 086°54'1212.4
2014-Sep-08 06:33N 44°28' W 087°01'1312.6
2014-Sep-08 05:33N 44°17' W 087°07'5 8.5
2014-Sep-08 05:00N 44°12' W 087°06'   200 / 71022.3 5.4
2014-Sep-05 05:00N 42°48' W 086°42'   170 / 211016.9 5.4
2014-Sep-02 07:00N 44°06' W 087°06'6511.3 280 / 121010.1 5.4
2014-Sep-02 01:14N 45°06' W 086°30'811.5
2014-Sep-02 00:32N 45°13' W 086°25'1111.4
2014-Sep-01 23:33N 45°23' W 086°18'1111.4
2014-Sep-01 22:33N 45°34' W 086°11'1111.0
2014-Sep-01 21:33N 45°43' W 086°02'1111.3
2014-Sep-01 20:33N 45°48' W 085°48'1111.3
2014-Sep-01 19:33N 45°54' W 085°34'711.9
2014-Sep-01 19:00N 45°54' W 085°24'511.4 220 / 181006.0 2.2 12.2
2014-Sep-01 18:33N 45°53' W 085°17'1111.5
2014-Sep-01 17:33N 45°51' W 085°01'1212.0
2014-Sep-01 16:33N 45°49' W 084°44'1211.8
2014-Sep-01 15:33N 45°43' W 084°29'1111.3
2014-Sep-01 14:33N 45°41' W 084°13'1211.9
2014-Sep-01 13:33N 45°35' W 083°58'  

Dump ship's entire track history